ORER/EBL METAR and TAF weather

Enter ICAO airport designator
Station Type Date Time Source
ORER METAR 2020/08/06 00:00 UTC NOAA

ORER 060000Z 35006KT 8000 NSC 26/09 Q1001 NOSIG


Station Type Date Time Source
ORER Decoded METAR 2020/08/06 00:00 UTC NOAA

Station name not available
Aug 05, 2020 - 08:00 PM EDT / 2020.08.06 0000 UTC
Wind: from the N (350 degrees) at 7 MPH (6 KT):0
Visibility: 4 mile(s):0
Temperature: 78 F (26 C)
Dew Point: 48 F (9 C)
Relative Humidity: 34%
Pressure (altimeter): 29.56 in. Hg (1001 hPa)
ob: ORER 060000Z 35006KT 8000 NSC 26/09 Q1001 NOSIG
cycle: 0

Station Type Date Time Source
ORER TAF 2020/08/05 18:10 UTC NOAA

TAF ORER 051700Z 0518/0618 VRB03KT 8000 NSC

Example: see airport list